Time;durP1;ratioP1;P1;durP2;ratioP2;P2;SDS_P1;SDS_P2;PMS_P1;PMS_P2;Temp;Humidity;BMP_temperature;BMP_pressure;BME280_temperature;BME280_humidity;BME280_pressure;Samples;Min_cycle;Max_cycle;Signal;HPM_P1;HPM_P2
2021/11/18 00:01:02;;;;;;;26.83;17.17;;;;;;;9.34;59.57;100475.25;7382858;19;20110;-62
2021/11/18 00:03:53;;;;;;;26.67;17.20;;;;;;;9.36;59.54;100468.22;7383489;19;20026;-62
2021/11/18 00:06:44;;;;;;;29.70;17.35;;;;;;;9.39;59.20;100464.66;7380348;19;20384;-62
2021/11/18 00:09:32;;;;;;;30.67;17.23;;;;;;;9.32;60.03;100463.97;7382293;19;20425;-62
2021/11/18 00:12:20;;;;;;;30.85;17.17;;;;;;;9.28;59.67;100471.97;7380800;19;20041;-61
2021/11/18 00:15:10;;;;;;;29.35;18.27;;;;;;;9.33;60.01;100467.44;7381764;19;20577;-61
2021/11/18 00:18:00;;;;;;;32.08;19.55;;;;;;;9.37;60.04;100469.94;7380525;19;20029;-62
2021/11/18 00:20:51;;;;;;;38.72;19.52;;;;;;;9.41;59.75;100471.56;7384483;19;20024;-62
2021/11/18 00:23:43;;;;;;;28.25;17.98;;;;;;;9.32;60.06;100474.44;7386322;19;20029;-62
2021/11/18 00:26:33;;;;;;;30.48;18.02;;;;;;;9.34;59.73;100471.78;7384200;19;20037;-61
2021/11/18 00:29:21;;;;;;;28.98;15.27;;;;;;;9.31;59.81;100472.72;7381547;19;20028;-62
2021/11/18 00:32:09;;;;;;;25.98;16.48;;;;;;;9.29;60.08;100471.91;7380650;19;20821;-61
2021/11/18 00:34:56;;;;;;;28.08;17.80;;;;;;;9.29;60.42;100468.44;7380867;19;20574;-61
2021/11/18 00:37:44;;;;;;;30.70;16.98;;;;;;;9.23;60.14;100469.50;7382486;19;20103;-61
2021/11/18 00:40:37;;;;;;;28.85;17.75;;;;;;;9.18;60.90;100471.38;7384400;19;20593;-62
2021/11/18 00:43:25;;;;;;;27.42;16.58;;;;;;;9.21;60.56;100470.44;7383266;19;20283;-62
2021/11/18 00:46:14;;;;;;;27.15;15.77;;;;;;;9.25;60.90;100472.91;7383855;19;20041;-62
2021/11/18 00:49:01;;;;;;;22.75;15.38;;;;;;;9.23;60.44;100477.34;7384789;19;20516;-62
2021/11/18 00:51:49;;;;;;;21.90;14.38;;;;;;;9.25;60.36;100478.16;7381876;19;20022;-61
2021/11/18 00:54:36;;;;;;;24.08;15.60;;;;;;;9.15;60.82;100471.44;7384921;19;20052;-61
2021/11/18 00:57:27;;;;;;;23.98;15.20;;;;;;;9.04;61.10;100484.00;7383356;19;20703;-61
2021/11/18 01:00:18;;;;;;;25.88;16.00;;;;;;;9.09;61.07;100487.34;7383506;19;20022;-61
2021/11/18 01:03:05;;;;;;;23.70;14.85;;;;;;;9.16;60.70;100483.63;7383260;19;20125;-61
2021/11/18 01:05:56;;;;;;;22.60;14.25;;;;;;;9.00;61.04;100480.63;7384326;19;20021;-62
2021/11/18 01:08:44;;;;;;;25.67;16.15;;;;;;;9.06;61.18;100479.56;7383997;19;20510;-61
2021/11/18 01:11:33;;;;;;;25.48;14.52;;;;;;;9.07;60.71;100473.44;7381569;19;20025;-61
2021/11/18 01:14:25;;;;;;;22.55;13.57;;;;;;;9.13;60.80;100488.94;7383812;19;20091;-61
2021/11/18 01:17:12;;;;;;;24.88;14.93;;;;;;;9.23;60.60;100484.31;7382287;19;20104;-61
2021/11/18 01:20:00;;;;;;;26.48;14.73;;;;;;;9.24;61.07;100479.06;7384146;19;20025;-61
2021/11/18 01:22:48;;;;;;;24.23;14.90;;;;;;;9.16;61.17;100484.53;7383016;19;20032;-62
2021/11/18 01:25:36;;;;;;;21.90;14.25;;;;;;;9.16;61.28;100481.00;7389952;19;20022;-61
2021/11/18 01:28:23;;;;;;;26.15;13.93;;;;;;;9.19;61.01;100475.72;7388349;19;20490;-62
2021/11/18 01:31:13;;;;;;;22.45;14.43;;;;;;;9.22;60.79;100480.84;7388850;19;20106;-62
2021/11/18 01:34:02;;;;;;;26.05;14.70;;;;;;;9.16;61.42;100481.91;7390349;19;20047;-62
2021/11/18 01:36:50;;;;;;;26.02;15.25;;;;;;;9.19;60.98;100491.41;7390667;19;20034;-61
2021/11/18 01:39:37;;;;;;;21.90;15.25;;;;;;;9.16;61.25;100486.25;7390467;19;20541;-62
2021/11/18 01:42:25;;;;;;;26.70;15.70;;;;;;;9.22;60.81;100493.09;7388665;19;20567;-61
2021/11/18 01:45:14;;;;;;;24.33;15.43;;;;;;;9.29;60.92;100495.47;7389969;19;20037;-62
2021/11/18 01:48:05;;;;;;;22.50;14.57;;;;;;;9.27;60.78;100497.28;7388054;19;20383;-61
2021/11/18 01:50:55;;;;;;;20.70;13.90;;;;;;;9.33;60.65;100499.69;7388517;19;20122;-61
2021/11/18 01:53:46;;;;;;;22.37;14.37;;;;;;;9.36;60.71;100498.75;7390734;19;20276;-61
2021/11/18 01:56:35;;;;;;;25.48;15.13;;;;;;;9.32;60.93;100500.59;7389631;19;20033;-62
2021/11/18 01:59:26;;;;;;;23.90;14.70;;;;;;;9.32;60.94;100502.38;7389696;19;20098;-61
2021/11/18 02:02:15;;;;;;;25.23;14.35;;;;;;;9.33;60.87;100494.47;7388398;19;20033;-62
2021/11/18 02:05:17;;;;;;;23.13;14.98;;;;;;;9.27;60.93;100505.13;7390199;19;20493;-61
2021/11/18 02:08:08;;;;;;;20.90;14.88;;;;;;;9.30;60.99;100502.41;7388189;19;20026;-61
2021/11/18 02:11:01;;;;;;;27.00;15.50;;;;;;;9.29;60.90;100503.31;7388540;19;20039;-61
2021/11/18 02:13:48;;;;;;;27.33;15.25;;;;;;;9.28;60.85;100504.22;7389599;19;20113;-61
2021/11/18 02:16:36;;;;;;;23.25;14.73;;;;;;;9.25;61.04;100522.63;7389313;19;20025;-61
2021/11/18 02:19:23;;;;;;;25.08;15.18;;;;;;;9.20;61.68;100515.81;7387525;19;20092;-61
2021/11/18 02:22:14;;;;;;;27.60;15.50;;;;;;;9.28;61.60;100506.84;7388394;19;20037;-61
2021/11/18 02:25:07;;;;;;;23.60;14.10;;;;;;;9.28;61.50;100509.44;7388798;19;20026;-61
2021/11/18 02:27:55;;;;;;;21.33;13.82;;;;;;;9.22;61.92;100514.00;7388027;19;20029;-62
2021/11/18 02:30:43;;;;;;;27.25;15.05;;;;;;;9.22;61.68;100514.88;7387620;19;20026;-60
2021/11/18 02:33:32;;;;;;;25.90;14.88;;;;;;;9.27;61.56;100518.19;7381997;19;20382;-60
2021/11/18 02:36:20;;;;;;;19.92;14.25;;;;;;;9.25;61.53;100514.78;7385289;19;20025;-60
2021/11/18 02:39:11;;;;;;;25.70;15.40;;;;;;;9.26;61.45;100516.47;7385119;19;20018;-60
2021/11/18 02:41:58;;;;;;;21.93;14.37;;;;;;;9.27;61.26;100507.72;7384226;19;20021;-60
2021/11/18 02:44:46;;;;;;;24.35;14.15;;;;;;;9.29;61.44;100508.53;7385383;19;20114;-60
2021/11/18 02:47:34;;;;;;;23.25;14.52;;;;;;;9.26;61.88;100513.88;7383736;19;20136;-61
2021/11/18 02:50:25;;;;;;;23.60;13.48;;;;;;;9.26;62.02;100515.63;7383359;19;20490;-63
2021/11/18 02:53:14;;;;;;;26.90;15.55;;;;;;;9.22;61.86;100527.09;7383309;19;20216;-60
2021/11/18 02:56:05;;;;;;;23.55;13.15;;;;;;;9.26;61.92;100526.94;7384686;19;20047;-61
2021/11/18 02:58:52;;;;;;;24.13;14.65;;;;;;;9.29;62.43;100524.25;7385280;19;20114;-60
2021/11/18 03:01:43;;;;;;;21.75;13.35;;;;;;;9.21;62.67;100528.84;7348706;19;20505;-60
2021/11/18 03:04:31;;;;;;;26.95;13.43;;;;;;;9.17;62.65;100529.84;7389209;19;20053;-63
2021/11/18 03:09:54;;;;;;;23.90;14.20;;;;;;;9.06;63.19;100531.88;7340138;19;19925;-60
2021/11/18 03:12:48;;;;;;;20.75;12.82;;;;;;;9.07;63.43;100538.81;7371760;19;20042;-63
2021/11/18 03:15:38;;;;;;;22.42;12.68;;;;;;;9.04;63.54;100525.84;7379206;19;20011;-63
2021/11/18 03:24:07;;;;;;;22.95;13.95;;;;;;;9.03;63.05;100545.03;7389077;19;20518;-63
2021/11/18 03:45:48;;;;;;;27.17;15.05;;;;;;;8.97;63.75;100540.00;7365827;19;20018;-62
2021/11/18 04:10:04;;;;;;;27.98;14.95;;;;;;;8.73;63.47;100542.34;7272270;19;20955;-62
2021/11/18 04:24:46;;;;;;;26.38;16.35;;;;;;;8.92;63.25;100557.53;7363707;19;20022;-64
2021/11/18 04:27:34;;;;;;;29.58;16.90;;;;;;;8.86;63.22;100553.34;7312075;19;20033;-63
2021/11/18 04:30:26;;;;;;;29.27;17.42;;;;;;;8.88;63.03;100558.53;7366316;19;20025;-63
2021/11/18 04:33:14;;;;;;;35.35;17.25;;;;;;;8.92;63.11;100552.31;7387958;19;20041;-63
2021/11/18 04:48:48;;;;;;;31.75;17.85;;;;;;;8.80;63.61;100543.03;7379783;19;20078;-60
2021/11/18 04:57:08;;;;;;;31.83;17.58;;;;;;;8.76;63.70;100575.41;7278687;19;20078;-63
2021/11/18 05:20:48;;;;;;;31.77;17.58;;;;;;;8.96;63.34;100570.50;7285028;19;20015;-60
2021/11/18 06:47:34;;;;;;;22.23;14.43;;;;;;;9.17;62.35;100631.84;7311002;19;20463;-62
2021/11/18 07:11:41;;;;;;;24.02;13.32;;;;;;;9.27;62.06;100622.84;7317705;19;20408;-63
2021/11/18 07:32:25;;;;;;;21.45;12.90;;;;;;;9.48;61.97;100626.63;7298139;19;20014;-63
2021/11/18 08:12:38;;;;;;;23.45;14.25;;;;;;;9.89;60.73;100643.78;7369553;19;20018;-64
2021/11/18 08:20:37;;;;;;;23.98;13.30;;;;;;;9.69;61.28;100656.59;7380512;19;20022;-64
2021/11/18 08:35:10;;;;;;;19.63;12.88;;;;;;;10.76;58.86;100677.81;7360065;19;20053;-62
2021/11/18 08:38:00;;;;;;;20.35;13.02;;;;;;;10.81;58.75;100680.28;7333612;19;20015;-63
2021/11/18 08:46:25;;;;;;;18.70;10.77;;;;;;;10.89;57.45;100701.88;7363966;19;20019;-62
2021/11/18 08:58:06;;;;;;;19.17;11.60;;;;;;;11.30;56.95;100685.63;7325894;19;20015;-61
2021/11/18 09:03:33;;;;;;;17.65;11.00;;;;;;;11.15;56.72;100694.00;7327328;19;20022;-62
2021/11/18 09:06:24;;;;;;;20.92;10.80;;;;;;;11.14;56.89;100692.28;7367037;19;20362;-63
2021/11/18 09:12:13;;;;;;;19.67;11.57;;;;;;;11.17;56.96;100691.34;7366785;19;20329;-60
2021/11/18 09:15:04;;;;;;;20.38;11.75;;;;;;;11.25;56.01;100700.69;7384993;19;20095;-61
2021/11/18 09:18:00;;;;;;;25.80;12.95;;;;;;;11.33;55.92;100696.94;7346931;19;20026;-62
2021/11/18 09:20:49;;;;;;;17.58;10.93;;;;;;;11.33;56.09;100702.19;7383411;19;20025;-61
2021/11/18 09:23:44;;;;;;;19.90;11.45;;;;;;;11.23;55.77;100702.47;7380930;19;20026;-60
2021/11/18 09:26:38;;;;;;;19.73;11.00;;;;;;;11.15;56.17;100704.50;7381743;19;20520;-61
2021/11/18 09:29:28;;;;;;;15.77;9.95;;;;;;;11.19;55.74;100698.25;7382618;19;20029;-62
2021/11/18 09:32:19;;;;;;;18.38;9.95;;;;;;;11.09;56.17;100703.88;7382021;19;20379;-62
2021/11/18 09:35:10;;;;;;;14.43;9.00;;;;;;;11.13;55.74;100695.84;7383205;19;20507;-62
2021/11/18 09:37:58;;;;;;;11.45;7.85;;;;;;;11.16;55.46;100700.97;7381246;19;20035;-60
2021/11/18 09:40:52;;;;;;;16.08;9.85;;;;;;;11.19;55.44;100710.50;7382533;19;20051;-69
2021/11/18 09:44:03;;;;;;;18.17;9.50;;;;;;;11.17;56.03;100710.56;7382931;19;20058;-66
2021/11/18 09:47:13;;;;;;;21.48;11.02;;;;;;;11.11;55.82;100699.41;7388486;19;20021;-66
2021/11/18 09:50:19;;;;;;;15.57;9.90;;;;;;;11.12;55.37;100691.50;7389241;19;20523;-65
2021/11/18 09:53:12;;;;;;;18.77;11.68;;;;;;;11.24;55.65;100690.19;7386500;19;20055;-65
2021/11/18 09:56:09;;;;;;;18.85;11.98;;;;;;;11.28;55.44;100692.69;7387944;19;20142;-65
2021/11/18 09:59:25;;;;;;;21.60;13.07;;;;;;;11.24;55.53;100683.22;7388703;19;20113;-66
2021/11/18 10:02:39;;;;;;;25.80;12.45;;;;;;;11.22;55.63;100684.16;7386856;19;20022;-65
2021/11/18 10:05:34;;;;;;;21.48;12.02;;;;;;;11.34;54.74;100677.63;7385096;19;20030;-62
2021/11/18 10:08:30;;;;;;;19.95;9.90;;;;;;;11.52;54.60;100677.00;7387909;19;20027;-63
2021/11/18 10:11:37;;;;;;;15.85;11.07;;;;;;;11.59;54.70;100675.84;7385176;19;20437;-62
2021/11/18 10:14:54;;;;;;;17.98;10.68;;;;;;;11.58;54.26;100671.53;7384165;19;20030;-62
2021/11/18 10:17:49;;;;;;;18.55;9.88;;;;;;;11.75;54.07;100658.66;7384332;19;20499;-63
2021/11/18 10:20:41;;;;;;;19.98;11.43;;;;;;;11.86;53.84;100667.00;7386221;19;20090;-63
2021/11/18 10:23:29;;;;;;;19.52;10.68;;;;;;;12.00;53.38;100670.91;7381928;19;20601;-62
2021/11/18 10:26:20;;;;;;;19.88;10.75;;;;;;;11.88;53.74;100680.97;7385187;19;20025;-62
2021/11/18 10:29:15;;;;;;;19.48;11.07;;;;;;;12.00;52.97;100686.66;7385503;19;20101;-63
2021/11/18 10:32:18;;;;;;;20.38;10.95;;;;;;;12.01;53.32;100677.88;7383549;19;20029;-62
2021/11/18 10:35:14;;;;;;;19.83;11.43;;;;;;;12.08;52.75;100672.34;7389727;19;20483;-63
2021/11/18 10:38:25;;;;;;;22.35;10.77;;;;;;;11.74;53.09;100677.94;7383981;19;20438;-62
2021/11/18 10:41:22;;;;;;;13.98;7.90;;;;;;;11.54;53.99;100683.06;7384995;19;20038;-62
2021/11/18 10:44:20;;;;;;;19.63;10.57;;;;;;;11.48;54.06;100688.53;7384714;19;20412;-62
2021/11/18 10:47:17;;;;;;;15.63;9.60;;;;;;;11.53;53.28;100686.59;7383670;19;20055;-62
2021/11/18 10:50:13;;;;;;;18.23;11.00;;;;;;;11.68;52.55;100667.66;7384536;19;20499;-63
2021/11/18 10:53:15;;;;;;;19.88;10.43;;;;;;;11.79;52.51;100655.03;7382023;19;20091;-63
2021/11/18 10:56:11;;;;;;;19.02;8.68;;;;;;;11.80;52.43;100658.50;7383825;19;20030;-63
2021/11/18 10:59:09;;;;;;;18.75;9.65;;;;;;;11.84;52.04;100660.94;7383689;19;20055;-63
2021/11/18 11:01:57;;;;;;;15.55;9.57;;;;;;;11.94;51.76;100665.88;7384173;19;20042;-69
2021/11/18 11:04:47;;;;;;;16.60;8.52;;;;;;;11.86;51.59;100656.50;7382517;19;20025;-68
2021/11/18 11:07:38;;;;;;;23.15;9.55;;;;;;;11.81;51.88;100663.69;7382859;19;20029;-66
2021/11/18 11:10:29;;;;;;;14.35;7.90;;;;;;;11.60;52.15;100680.19;7383369;19;20022;-65
2021/11/18 11:13:28;;;;;;;13.50;8.93;;;;;;;11.61;52.16;100681.91;7381150;19;20022;-63
2021/11/18 11:16:41;;;;;;;17.83;9.25;;;;;;;11.65;51.70;100682.66;7383542;19;20095;-63
2021/11/18 11:19:37;;;;;;;17.05;7.55;;;;;;;11.78;51.06;100690.09;7384381;19;20032;-65
2021/11/18 11:22:33;;;;;;;17.40;7.22;;;;;;;11.86;50.80;100682.75;7383141;19;20052;-68
2021/11/18 11:25:34;;;;;;;17.13;9.75;;;;;;;11.85;51.39;100691.56;7383344;19;20041;-66
2021/11/18 11:28:54;;;;;;;18.00;11.57;;;;;;;11.81;50.98;100687.34;7385006;19;20048;-66
2021/11/18 11:31:52;;;;;;;17.35;11.32;;;;;;;11.72;50.84;100689.41;7383214;19;20375;-63
2021/11/18 11:35:04;;;;;;;12.75;7.35;;;;;;;11.77;50.81;100682.22;7387285;19;20034;-64
2021/11/18 11:38:12;;;;;;;;;;;;;;;11.90;51.26;100678.28;7383333;19;20025;-65
2021/11/18 11:41:18;;;;;;;14.75;8.30;;;;;;;11.77;50.67;100669.94;7381745;19;19929;-64
2021/11/18 11:44:16;;;;;;;15.38;7.43;;;;;;;11.66;51.11;100684.38;7383572;19;20041;-64
2021/11/18 11:47:08;;;;;;;12.18;6.80;;;;;;;11.54;51.45;100685.69;7384665;19;20218;-70
2021/11/18 11:49:59;;;;;;;;;;;;;;;11.54;51.45;100685.69;7382129;19;20026;-65
2021/11/18 11:53:04;;;;;;;16.77;7.90;;;;;;;11.55;51.31;100676.88;7381668;19;19927;-65
2021/11/18 11:56:04;;;;;;;16.17;8.57;;;;;;;11.60;51.33;100669.69;7381917;19;20022;-66
2021/11/18 11:58:58;;;;;;;22.20;13.90;;;;;;;11.53;51.76;100674.31;7380933;19;20401;-66
2021/11/18 12:01:57;;;;;;;23.50;12.63;;;;;;;11.66;51.03;100676.50;7380011;19;20041;-66
2021/11/18 12:04:50;;;;;;;12.75;8.88;;;;;;;11.81;50.83;100653.19;7382394;19;20018;-65
2021/11/18 12:07:44;;;;;;;12.93;9.13;;;;;;;12.07;50.62;100651.34;7378220;19;20030;-66
2021/11/18 12:10:37;;;;;;;13.90;7.20;;;;;;;12.07;50.10;100648.72;7381700;19;20021;-66
2021/11/18 12:13:38;;;;;;;12.13;6.72;;;;;;;11.90;50.29;100646.75;7380630;19;20030;-64
2021/11/18 12:16:32;;;;;;;18.58;8.02;;;;;;;12.11;50.14;100650.34;7381474;19;20033;-66
2021/11/18 12:19:33;;;;;;;13.02;7.13;;;;;;;12.29;49.88;100648.78;7381816;19;20151;-65
2021/11/18 12:22:36;;;;;;;;;;;;;;;12.37;50.20;100642.28;7380984;19;20022;-66
2021/11/18 12:25:39;;;;;;;13.95;8.10;;;;;;;12.15;50.11;100641.41;7379914;19;20275;-66
2021/11/18 12:28:31;;;;;;;11.82;7.57;;;;;;;11.98;50.49;100641.19;7379887;19;20035;-66
2021/11/18 12:31:32;;;;;;;15.60;7.95;;;;;;;11.83;50.58;100653.97;7381502;19;20029;-66
2021/11/18 12:34:52;;;;;;;14.68;7.30;;;;;;;11.79;50.76;100649.75;7379356;19;20484;-66
2021/11/18 12:38:06;;;;;;;15.43;7.50;;;;;;;11.71;50.99;100635.19;7379312;19;20022;-65
2021/11/18 12:41:10;;;;;;;12.52;7.93;;;;;;;11.59;51.35;100642.56;7380853;19;20364;-67
2021/11/18 12:44:30;;;;;;;15.52;7.82;;;;;;;11.49;51.79;100637.72;7381202;19;20504;-65
2021/11/18 12:47:20;;;;;;;14.05;7.72;;;;;;;11.49;51.22;100650.84;7378372;19;20026;-65
2021/11/18 12:50:40;;;;;;;14.18;6.53;;;;;;;11.35;51.74;100637.34;7379696;19;20030;-64
2021/11/18 12:53:38;;;;;;;12.98;7.47;;;;;;;11.30;51.98;100630.50;7378540;19;20029;-64
2021/11/18 12:56:30;;;;;;;16.17;7.88;;;;;;;11.24;51.81;100635.97;7378419;19;20025;-64
2021/11/18 12:59:54;;;;;;;15.55;7.28;;;;;;;11.15;51.91;100617.91;7383538;19;20104;-65
2021/11/18 13:03:00;;;;;;;10.95;6.43;;;;;;;11.17;51.92;100616.09;7381775;19;20115;-64
2021/11/18 13:05:59;;;;;;;13.63;6.80;;;;;;;11.03;52.23;100618.31;7381319;19;20029;-66
2021/11/18 13:08:57;;;;;;;13.32;7.18;;;;;;;10.97;52.60;100606.28;7382571;19;20456;-67
2021/11/18 13:11:54;;;;;;;11.70;7.97;;;;;;;10.99;52.53;100601.84;7381771;19;20030;-65
2021/11/18 13:15:04;;;;;;;12.27;7.35;;;;;;;11.06;52.59;100601.66;7383965;19;20017;-66
2021/11/18 13:17:54;;;;;;;14.45;6.32;;;;;;;11.11;52.69;100607.59;7379894;19;20025;-66
2021/11/18 13:21:00;;;;;;;14.32;6.80;;;;;;;10.90;52.68;100602.16;7388036;19;20975;-65
2021/11/18 13:23:58;;;;;;;15.50;7.32;;;;;;;10.93;52.93;100612.53;7391160;19;20029;-67
2021/11/18 13:26:51;;;;;;;11.10;5.70;;;;;;;10.89;52.97;100604.84;7390153;19;20037;-70
2021/11/18 13:29:47;;;;;;;14.00;7.93;;;;;;;10.88;52.81;100606.59;7390752;19;20017;-70
2021/11/18 13:32:35;;;;;;;13.93;6.72;;;;;;;10.88;53.43;100605.75;7384932;19;20022;-69
2021/11/18 13:35:28;;;;;;;14.27;8.23;;;;;;;10.90;53.14;100617.03;7386270;19;20031;-70
2021/11/18 13:38:22;;;;;;;15.52;7.43;;;;;;;10.94;53.20;100618.66;7385124;19;20515;-67
2021/11/18 13:41:12;;;;;;;19.75;9.50;;;;;;;10.97;53.12;100622.03;7386407;19;20382;-68
2021/11/18 13:44:02;;;;;;;11.25;7.05;;;;;;;10.87;53.60;100618.00;7385523;19;20116;-70
2021/11/18 13:46:57;;;;;;;15.38;8.02;;;;;;;10.83;53.45;100628.66;7384520;19;20106;-70
2021/11/18 13:49:50;;;;;;;15.85;7.93;;;;;;;10.87;53.11;100628.50;7390150;19;20023;-69
2021/11/18 13:52:41;;;;;;;17.60;8.38;;;;;;;10.82;53.74;100632.16;7385804;19;20025;-69
2021/11/18 13:55:37;;;;;;;16.15;9.10;;;;;;;10.68;53.78;100630.88;7388846;19;20463;-68
2021/11/18 13:58:29;;;;;;;17.00;9.13;;;;;;;10.64;53.99;100639.75;7385823;19;20042;-65
2021/11/18 14:01:21;;;;;;;18.85;8.82;;;;;;;10.62;54.51;100636.31;7387655;19;20024;-69
2021/11/18 14:04:15;;;;;;;21.95;9.63;;;;;;;10.56;54.52;100630.41;7389707;19;20032;-67
2021/11/18 14:07:07;;;;;;;16.83;8.95;;;;;;;10.47;54.62;100615.84;7387476;19;20025;-66
2021/11/18 14:09:59;;;;;;;15.77;8.50;;;;;;;10.36;55.27;100618.78;7388021;19;20022;-66
2021/11/18 14:12:58;;;;;;;16.98;8.82;;;;;;;10.22;55.03;100621.00;7386572;19;21804;-68
2021/11/18 14:15:56;;;;;;;21.67;10.20;;;;;;;10.05;55.64;100605.75;7388481;19;20098;-67
2021/11/18 14:19:09;;;;;;;14.73;8.93;;;;;;;9.78;56.34;100594.31;7385059;19;20376;-67
2021/11/18 14:22:03;;;;;;;15.82;10.27;;;;;;;9.71;56.48;100607.66;7387487;19;20029;-73
2021/11/18 14:24:55;;;;;;;22.20;11.18;;;;;;;9.73;56.80;100605.84;7387543;19;20021;-72
2021/11/18 14:27:53;;;;;;;28.63;12.27;;;;;;;9.81;56.65;100614.34;7385095;19;20050;-73
2021/11/18 14:30:49;;;;;;;21.90;12.05;;;;;;;9.89;56.74;100620.22;7387154;19;20514;-67
2021/11/18 14:33:44;;;;;;;24.77;12.48;;;;;;;9.94;56.61;100626.16;7384006;19;20041;-68
2021/11/18 14:36:35;;;;;;;24.13;11.93;;;;;;;10.00;56.53;100641.72;7388744;19;20029;-68
2021/11/18 14:39:29;;;;;;;13.10;8.43;;;;;;;10.06;56.62;100630.19;7388203;19;20021;-69
2021/11/18 14:42:24;;;;;;;23.33;11.02;;;;;;;10.01;56.55;100637.34;7385785;19;20040;-69
2021/11/18 14:45:24;;;;;;;18.92;11.45;;;;;;;9.92;56.70;100635.81;7387491;19;20025;-68
2021/11/18 14:48:31;;;;;;;18.67;10.65;;;;;;;9.92;57.13;100648.91;7386473;19;20036;-67
2021/11/18 14:51:29;;;;;;;21.45;11.63;;;;;;;9.92;57.15;100643.69;7387541;19;20037;-65
2021/11/18 14:54:28;;;;;;;20.83;10.70;;;;;;;9.86;57.17;100643.88;7384988;19;20021;-65
2021/11/18 14:57:27;;;;;;;27.25;13.10;;;;;;;9.90;57.48;100645.50;7386296;19;20033;-66
2021/11/18 15:00:14;;;;;;;28.98;12.48;;;;;;;9.90;57.32;100636.78;7387688;19;20025;-66
2021/11/18 15:03:02;;;;;;;28.75;13.23;;;;;;;9.89;57.74;100630.69;7385037;19;20044;-65
2021/11/18 15:05:54;;;;;;;27.73;13.57;;;;;;;9.91;57.71;100625.41;7386369;19;20021;-66
2021/11/18 15:08:42;;;;;;;36.97;15.45;;;;;;;9.96;57.72;100613.88;7387108;19;20644;-66
2021/11/18 15:11:32;;;;;;;31.98;15.32;;;;;;;10.00;57.80;100615.53;7385811;19;20032;-62
2021/11/18 15:14:20;;;;;;;33.05;13.63;;;;;;;10.04;57.90;100606.66;7380720;19;20118;-62
2021/11/18 15:17:08;;;;;;;27.58;13.05;;;;;;;10.06;57.56;100604.00;7382589;19;20025;-63
2021/11/18 15:19:58;;;;;;;22.80;10.68;;;;;;;9.98;57.71;100604.22;7382982;19;20103;-63
2021/11/18 15:22:50;;;;;;;28.92;13.27;;;;;;;9.92;57.95;100632.34;7382753;19;20041;-62
2021/11/18 15:25:38;;;;;;;28.77;12.48;;;;;;;9.92;58.36;100627.97;7384915;19;20037;-62
2021/11/18 15:28:27;;;;;;;24.80;12.57;;;;;;;9.94;58.11;100631.41;7383373;19;20029;-64
2021/11/18 15:31:17;;;;;;;23.77;12.65;;;;;;;9.94;58.33;100626.16;7385351;19;20022;-64
2021/11/18 15:34:05;;;;;;;23.77;13.45;;;;;;;9.92;58.43;100622.72;7382015;19;20040;-62
2021/11/18 15:36:53;;;;;;;26.90;14.57;;;;;;;9.95;58.22;100620.03;7382392;19;20026;-62
2021/11/18 15:39:44;;;;;;;33.83;13.25;;;;;;;10.00;58.24;100614.66;7386537;19;20026;-62
2021/11/18 15:42:32;;;;;;;25.27;12.17;;;;;;;9.98;58.02;100622.53;7382265;19;20120;-63
2021/11/18 15:45:22;;;;;;;22.60;12.07;;;;;;;10.07;57.85;100622.28;7384878;19;20445;-62
2021/11/18 15:48:10;;;;;;;30.02;13.55;;;;;;;10.17;58.00;100628.09;7383961;19;20032;-63
2021/11/18 15:51:01;;;;;;;21.75;12.05;;;;;;;10.24;57.80;100627.03;7385233;19;20050;-62
2021/11/18 15:53:50;;;;;;;25.58;12.60;;;;;;;10.26;58.02;100642.72;7384921;19;20122;-63
2021/11/18 15:56:43;;;;;;;23.27;12.88;;;;;;;10.26;58.07;100653.19;7383413;19;20136;-63
2021/11/18 15:59:32;;;;;;;27.20;14.25;;;;;;;10.34;57.62;100645.94;7384306;19;20041;-63
2021/11/18 16:02:23;;;;;;;27.45;14.35;;;;;;;10.31;58.26;100627.69;7381911;19;20049;-64
2021/11/18 16:05:13;;;;;;;23.88;13.32;;;;;;;10.32;58.18;100629.41;7385162;19;20454;-64
2021/11/18 16:08:01;;;;;;;25.90;12.80;;;;;;;10.30;58.13;100623.38;7383239;19;20029;-64
2021/11/18 16:10:54;;;;;;;23.63;13.00;;;;;;;10.30;58.34;100620.75;7382930;19;20364;-63
2021/11/18 16:13:47;;;;;;;24.83;12.20;;;;;;;10.27;57.96;100618.22;7382646;19;20037;-64
2021/11/18 16:16:36;;;;;;;25.60;14.07;;;;;;;10.37;57.97;100617.03;7383814;19;20037;-65
2021/11/18 16:19:27;;;;;;;35.90;15.02;;;;;;;10.40;57.71;100624.78;7384202;19;20037;-63
2021/11/18 16:22:18;;;;;;;25.13;13.50;;;;;;;10.48;58.24;100621.94;7384279;19;20052;-63
2021/11/18 16:25:07;;;;;;;20.20;11.30;;;;;;;10.51;57.63;100604.34;7384768;19;20029;-63
2021/11/18 16:27:56;;;;;;;18.92;11.07;;;;;;;10.53;57.70;100623.50;7382898;19;20122;-63
2021/11/18 16:30:51;;;;;;;22.38;13.02;;;;;;;10.55;58.12;100621.69;7383303;19;20025;-63
2021/11/18 16:33:39;;;;;;;22.13;12.15;;;;;;;10.55;57.68;100612.97;7380534;19;20052;-64
2021/11/18 16:36:27;;;;;;;31.40;15.00;;;;;;;10.63;57.89;100627.56;7383145;19;20028;-65
2021/11/18 16:55:02;;;;;;;29.63;15.98;;;;;;;10.75;57.31;100641.16;7366701;19;20274;-63
2021/11/18 16:57:49;;;;;;;34.03;16.98;;;;;;;10.77;57.45;100628.84;7388670;19;20376;-63
2021/11/18 17:00:41;;;;;;;32.35;17.80;;;;;;;10.79;57.73;100611.28;7388971;19;20456;-65
2021/11/18 17:03:29;;;;;;;31.10;16.65;;;;;;;10.75;57.58;100609.69;7391755;19;20471;-63
2021/11/18 17:06:18;;;;;;;25.85;15.02;;;;;;;10.80;57.55;100607.75;7386933;19;20042;-63
2021/11/18 17:09:07;;;;;;;22.05;14.27;;;;;;;10.77;57.49;100606.09;7390890;19;20033;-65
2021/11/18 17:11:58;;;;;;;36.15;18.65;;;;;;;10.74;57.59;100619.31;7389886;19;20131;-65
2021/11/18 17:14:47;;;;;;;34.60;19.10;;;;;;;10.77;57.62;100639.34;7386267;19;20030;-64
2021/11/18 17:17:35;;;;;;;29.70;16.25;;;;;;;10.78;57.65;100631.41;7388469;19;20497;-64
2021/11/18 17:20:23;;;;;;;32.78;17.27;;;;;;;10.82;57.76;100630.41;7388371;19;20039;-64
2021/11/18 17:23:11;;;;;;;27.67;15.65;;;;;;;10.85;57.60;100621.59;7391197;19;20366;-64
2021/11/18 17:26:00;;;;;;;27.55;14.15;;;;;;;10.82;57.79;100614.66;7385902;19;20026;-63
2021/11/18 17:28:52;;;;;;;42.63;20.55;;;;;;;10.79;57.91;100616.53;7387903;19;20021;-66
2021/11/18 17:31:41;;;;;;;;;;;;;;;10.79;57.55;100611.28;7388223;19;20026;-66
2021/11/18 17:34:29;;;;;;;23.98;13.80;;;;;;;10.76;57.88;100603.53;7386093;19;20444;-68
2021/11/18 17:37:19;;;;;;;29.13;15.43;;;;;;;10.78;57.76;100599.09;7387113;19;20107;-68
2021/11/18 17:40:13;;;;;;;25.52;14.70;;;;;;;10.73;58.03;100585.28;7385790;19;20033;-66
2021/11/18 17:43:01;;;;;;;23.25;11.25;;;;;;;10.69;57.69;100593.25;7388686;19;20040;-65
2021/11/18 17:45:56;;;;;;;19.38;13.05;;;;;;;10.61;58.02;100587.38;7384134;19;20460;-68
2021/11/18 17:48:45;;;;;;;22.08;12.98;;;;;;;10.60;58.54;100574.31;7386376;19;20028;-67
2021/11/18 17:51:35;;;;;;;24.45;13.48;;;;;;;10.54;58.27;100569.31;7386399;19;20029;-67
2021/11/18 17:54:26;;;;;;;26.45;13.95;;;;;;;10.51;58.38;100572.88;7387737;19;20359;-67
2021/11/18 17:57:14;;;;;;;27.15;14.18;;;;;;;10.52;58.24;100565.88;7387038;19;20148;-64
2021/11/18 18:00:02;;;;;;;25.27;13.40;;;;;;;10.61;58.46;100561.16;7384719;19;20029;-69
2021/11/18 18:02:52;;;;;;;19.60;12.25;;;;;;;10.60;58.14;100558.59;7389062;19;20608;-65
2021/11/18 18:05:42;;;;;;;20.27;12.07;;;;;;;10.63;58.48;100558.53;7382748;19;20034;-66
2021/11/18 18:08:31;;;;;;;27.33;14.10;;;;;;;10.62;58.21;100583.88;7385661;19;20505;-67
2021/11/18 18:11:29;;;;;;;20.98;13.85;;;;;;;10.65;58.48;100573.28;7383151;19;20017;-67
2021/11/18 18:14:18;;;;;;;21.13;13.02;;;;;;;10.65;58.06;100567.19;7386123;19;20051;-69
2021/11/18 18:17:09;;;;;;;29.77;15.60;;;;;;;10.71;58.12;100566.13;7389868;19;20544;-67
2021/11/18 18:20:02;;;;;;;22.33;10.40;;;;;;;10.68;58.18;100560.06;7384837;19;20025;-68
2021/11/18 18:22:49;;;;;;;23.83;11.73;;;;;;;10.64;58.33;100545.38;7390142;19;20537;-68
2021/11/18 18:25:40;;;;;;;21.95;12.57;;;;;;;10.60;58.62;100543.72;7385426;19;20067;-69